sensor_id;sensor_type;location;lat;lon;timestamp;temperature;humidity
54684;DHT22;40582;53.100;6.686;2022-10-31T00:00:52;13.10;99.90
54684;DHT22;40582;53.100;6.686;2022-10-31T00:03:17;13.10;99.90
54684;DHT22;40582;53.100;6.686;2022-10-31T00:05:45;13.10;99.90
54684;DHT22;40582;53.100;6.686;2022-10-31T00:08:11;13.10;99.90
54684;DHT22;40582;53.100;6.686;2022-10-31T00:10:38;13.10;99.90
54684;DHT22;40582;53.100;6.686;2022-10-31T00:13:04;13.00;99.90
54684;DHT22;40582;53.100;6.686;2022-10-31T00:15:30;13.00;99.90
54684;DHT22;40582;53.100;6.686;2022-10-31T00:17:58;13.00;99.90
54684;DHT22;40582;53.100;6.686;2022-10-31T00:20:24;13.00;99.90
54684;DHT22;40582;53.100;6.686;2022-10-31T00:22:49;13.00;99.90
54684;DHT22;40582;53.100;6.686;2022-10-31T00:25:15;13.00;99.90
54684;DHT22;40582;53.100;6.686;2022-10-31T00:27:41;12.90;99.90
54684;DHT22;40582;53.100;6.686;2022-10-31T00:30:07;12.90;99.90
54684;DHT22;40582;53.100;6.686;2022-10-31T00:32:32;12.90;99.90
54684;DHT22;40582;53.100;6.686;2022-10-31T00:34:58;12.90;99.90
54684;DHT22;40582;53.100;6.686;2022-10-31T00:37:24;12.80;99.90
54684;DHT22;40582;53.100;6.686;2022-10-31T00:39:49;12.90;99.90
54684;DHT22;40582;53.100;6.686;2022-10-31T00:42:15;12.80;99.90
54684;DHT22;40582;53.100;6.686;2022-10-31T00:44:41;12.80;99.90
54684;DHT22;40582;53.100;6.686;2022-10-31T00:47:06;12.80;99.90
54684;DHT22;40582;53.100;6.686;2022-10-31T00:49:32;12.80;99.90
54684;DHT22;40582;53.100;6.686;2022-10-31T00:51:58;12.70;99.90
54684;DHT22;40582;53.100;6.686;2022-10-31T00:54:23;12.80;99.90
54684;DHT22;40582;53.100;6.686;2022-10-31T00:56:49;12.80;99.90
54684;DHT22;40582;53.100;6.686;2022-10-31T00:59:15;12.70;99.90
54684;DHT22;40582;53.100;6.686;2022-10-31T01:01:40;12.70;99.90
54684;DHT22;40582;53.100;6.686;2022-10-31T01:04:06;12.70;99.90
54684;DHT22;40582;53.100;6.686;2022-10-31T01:06:32;12.80;99.90
54684;DHT22;40582;53.100;6.686;2022-10-31T01:08:57;12.70;99.90
54684;DHT22;40582;53.100;6.686;2022-10-31T01:11:23;12.70;99.90
54684;DHT22;40582;53.100;6.686;2022-10-31T01:13:53;12.60;99.90
54684;DHT22;40582;53.100;6.686;2022-10-31T01:16:21;12.70;99.90
54684;DHT22;40582;53.100;6.686;2022-10-31T01:18:47;12.70;99.90
54684;DHT22;40582;53.100;6.686;2022-10-31T01:21:15;12.70;99.90
54684;DHT22;40582;53.100;6.686;2022-10-31T01:23:42;12.70;99.90
54684;DHT22;40582;53.100;6.686;2022-10-31T01:26:10;12.70;99.90
54684;DHT22;40582;53.100;6.686;2022-10-31T01:28:39;12.70;99.90
54684;DHT22;40582;53.100;6.686;2022-10-31T01:31:09;12.70;99.90
54684;DHT22;40582;53.100;6.686;2022-10-31T01:33:36;12.70;99.90
54684;DHT22;40582;53.100;6.686;2022-10-31T01:38:39;12.70;99.90
54684;DHT22;40582;53.100;6.686;2022-10-31T01:41:05;12.80;99.90
54684;DHT22;40582;53.100;6.686;2022-10-31T01:43:49;12.80;99.90
54684;DHT22;40582;53.100;6.686;2022-10-31T01:46:18;12.80;99.90
54684;DHT22;40582;53.100;6.686;2022-10-31T01:48:45;12.80;99.90
54684;DHT22;40582;53.100;6.686;2022-10-31T01:51:12;12.80;99.90
54684;DHT22;40582;53.100;6.686;2022-10-31T01:53:41;12.80;99.90
54684;DHT22;40582;53.100;6.686;2022-10-31T01:56:08;12.80;99.90
54684;DHT22;40582;53.100;6.686;2022-10-31T01:58:34;12.90;99.90
54684;DHT22;40582;53.100;6.686;2022-10-31T02:01:01;12.80;99.90
54684;DHT22;40582;53.100;6.686;2022-10-31T02:03:28;12.80;99.90
54684;DHT22;40582;53.100;6.686;2022-10-31T02:05:55;12.70;99.90
54684;DHT22;40582;53.100;6.686;2022-10-31T02:08:30;12.70;99.90
54684;DHT22;40582;53.100;6.686;2022-10-31T02:10:57;12.70;99.90
54684;DHT22;40582;53.100;6.686;2022-10-31T02:13:24;12.70;99.90
54684;DHT22;40582;53.100;6.686;2022-10-31T02:15:53;12.60;99.90
54684;DHT22;40582;53.100;6.686;2022-10-31T02:18:19;12.50;99.90
54684;DHT22;40582;53.100;6.686;2022-10-31T02:21:19;12.50;99.90
54684;DHT22;40582;53.100;6.686;2022-10-31T02:35:01;12.40;99.90
54684;DHT22;40582;53.100;6.686;2022-10-31T02:40:30;12.40;99.90
54684;DHT22;40582;53.100;6.686;2022-10-31T02:45:50;12.30;99.90
54684;DHT22;40582;53.100;6.686;2022-10-31T02:48:24;12.30;99.90
54684;DHT22;40582;53.100;6.686;2022-10-31T02:50:56;12.20;99.90
54684;DHT22;40582;53.100;6.686;2022-10-31T02:53:23;12.20;99.90
54684;DHT22;40582;53.100;6.686;2022-10-31T02:55:58;12.20;99.90
54684;DHT22;40582;53.100;6.686;2022-10-31T02:58:27;12.20;99.90
54684;DHT22;40582;53.100;6.686;2022-10-31T03:03:36;12.20;99.90
54684;DHT22;40582;53.100;6.686;2022-10-31T03:06:24;12.20;99.90
54684;DHT22;40582;53.100;6.686;2022-10-31T03:11:34;12.20;99.90
54684;DHT22;40582;53.100;6.686;2022-10-31T03:14:12;12.20;99.90
54684;DHT22;40582;53.100;6.686;2022-10-31T03:16:51;12.20;99.90
54684;DHT22;40582;53.100;6.686;2022-10-31T03:19:30;12.20;99.90
54684;DHT22;40582;53.100;6.686;2022-10-31T03:22:00;12.10;99.90
54684;DHT22;40582;53.100;6.686;2022-10-31T03:24:31;12.10;99.90
54684;DHT22;40582;53.100;6.686;2022-10-31T03:26:59;12.00;99.90
54684;DHT22;40582;53.100;6.686;2022-10-31T03:29:29;12.00;99.90
54684;DHT22;40582;53.100;6.686;2022-10-31T03:31:59;12.00;99.90
54684;DHT22;40582;53.100;6.686;2022-10-31T03:34:26;12.00;99.90
54684;DHT22;40582;53.100;6.686;2022-10-31T03:36:55;12.00;99.90
54684;DHT22;40582;53.100;6.686;2022-10-31T03:39:22;12.00;99.90
54684;DHT22;40582;53.100;6.686;2022-10-31T03:41:54;11.90;99.90
54684;DHT22;40582;53.100;6.686;2022-10-31T03:44:22;12.00;99.90
54684;DHT22;40582;53.100;6.686;2022-10-31T03:46:49;11.90;99.90
54684;DHT22;40582;53.100;6.686;2022-10-31T03:49:15;11.90;99.90
54684;DHT22;40582;53.100;6.686;2022-10-31T03:54:54;11.90;99.90
54684;DHT22;40582;53.100;6.686;2022-10-31T03:57:29;11.90;99.90
54684;DHT22;40582;53.100;6.686;2022-10-31T04:00:10;11.80;99.90
54684;DHT22;40582;53.100;6.686;2022-10-31T04:02:40;11.80;99.90
54684;DHT22;40582;53.100;6.686;2022-10-31T04:05:08;11.70;99.90
54684;DHT22;40582;53.100;6.686;2022-10-31T04:07:38;11.70;99.90
54684;DHT22;40582;53.100;6.686;2022-10-31T04:10:09;11.70;99.90
54684;DHT22;40582;53.100;6.686;2022-10-31T04:12:37;11.60;99.90
54684;DHT22;40582;53.100;6.686;2022-10-31T04:15:05;11.50;99.90
54684;DHT22;40582;53.100;6.686;2022-10-31T04:17:35;11.40;99.90
54684;DHT22;40582;53.100;6.686;2022-10-31T04:20:02;11.30;99.90
54684;DHT22;40582;53.100;6.686;2022-10-31T04:22:28;11.30;99.90
54684;DHT22;40582;53.100;6.686;2022-10-31T04:24:54;11.20;99.90
54684;DHT22;40582;53.100;6.686;2022-10-31T04:27:20;11.20;99.90
54684;DHT22;40582;53.100;6.686;2022-10-31T04:29:45;11.20;99.90
54684;DHT22;40582;53.100;6.686;2022-10-31T04:32:11;11.20;99.90
54684;DHT22;40582;53.100;6.686;2022-10-31T04:34:36;11.20;99.90
54684;DHT22;40582;53.100;6.686;2022-10-31T04:37:02;11.30;99.90
54684;DHT22;40582;53.100;6.686;2022-10-31T04:39:28;11.30;99.90
54684;DHT22;40582;53.100;6.686;2022-10-31T04:41:53;11.30;99.90
54684;DHT22;40582;53.100;6.686;2022-10-31T04:44:19;11.30;99.90
54684;DHT22;40582;53.100;6.686;2022-10-31T04:46:45;11.30;99.90
54684;DHT22;40582;53.100;6.686;2022-10-31T04:49:11;11.30;99.90
54684;DHT22;40582;53.100;6.686;2022-10-31T04:51:36;11.30;99.90
54684;DHT22;40582;53.100;6.686;2022-10-31T04:54:02;11.20;99.90
54684;DHT22;40582;53.100;6.686;2022-10-31T04:56:28;11.10;99.90
54684;DHT22;40582;53.100;6.686;2022-10-31T04:58:54;11.10;99.90
54684;DHT22;40582;53.100;6.686;2022-10-31T05:01:19;11.00;99.90
54684;DHT22;40582;53.100;6.686;2022-10-31T05:03:45;10.90;99.90
54684;DHT22;40582;53.100;6.686;2022-10-31T05:06:11;10.90;99.90
54684;DHT22;40582;53.100;6.686;2022-10-31T05:08:36;10.90;99.90
54684;DHT22;40582;53.100;6.686;2022-10-31T05:11:03;10.80;99.90
54684;DHT22;40582;53.100;6.686;2022-10-31T05:13:30;10.80;99.90
54684;DHT22;40582;53.100;6.686;2022-10-31T05:15:55;10.70;99.90
54684;DHT22;40582;53.100;6.686;2022-10-31T05:18:22;10.70;99.90
54684;DHT22;40582;53.100;6.686;2022-10-31T05:20:48;10.60;99.90
54684;DHT22;40582;53.100;6.686;2022-10-31T05:23:13;10.60;99.90
54684;DHT22;40582;53.100;6.686;2022-10-31T05:25:40;10.60;99.90
54684;DHT22;40582;53.100;6.686;2022-10-31T05:28:06;10.60;99.90
54684;DHT22;40582;53.100;6.686;2022-10-31T05:30:32;10.50;99.90
54684;DHT22;40582;53.100;6.686;2022-10-31T05:32:58;10.50;99.90
54684;DHT22;40582;53.100;6.686;2022-10-31T05:35:30;10.40;99.90
54684;DHT22;40582;53.100;6.686;2022-10-31T05:37:57;10.50;99.90
54684;DHT22;40582;53.100;6.686;2022-10-31T05:40:27;10.50;99.90
54684;DHT22;40582;53.100;6.686;2022-10-31T05:42:54;10.50;99.90
54684;DHT22;40582;53.100;6.686;2022-10-31T05:45:21;10.50;99.90
54684;DHT22;40582;53.100;6.686;2022-10-31T05:47:57;10.40;99.90
54684;DHT22;40582;53.100;6.686;2022-10-31T05:50:24;10.40;99.90
54684;DHT22;40582;53.100;6.686;2022-10-31T05:53:04;10.30;99.90
54684;DHT22;40582;53.100;6.686;2022-10-31T05:55:31;10.40;99.90
54684;DHT22;40582;53.100;6.686;2022-10-31T05:57:57;10.40;99.90
54684;DHT22;40582;53.100;6.686;2022-10-31T06:00:23;10.40;99.90
54684;DHT22;40582;53.100;6.686;2022-10-31T06:02:49;10.30;99.90
54684;DHT22;40582;53.100;6.686;2022-10-31T06:05:22;10.30;99.90
54684;DHT22;40582;53.100;6.686;2022-10-31T06:07:48;10.20;99.90
54684;DHT22;40582;53.100;6.686;2022-10-31T06:10:13;10.30;99.90
54684;DHT22;40582;53.100;6.686;2022-10-31T06:12:39;10.30;99.90
54684;DHT22;40582;53.100;6.686;2022-10-31T06:15:07;10.20;99.90
54684;DHT22;40582;53.100;6.686;2022-10-31T06:17:36;10.20;99.90
54684;DHT22;40582;53.100;6.686;2022-10-31T06:20:02;10.20;99.90
54684;DHT22;40582;53.100;6.686;2022-10-31T06:22:28;10.20;99.90
54684;DHT22;40582;53.100;6.686;2022-10-31T06:24:54;10.10;99.90
54684;DHT22;40582;53.100;6.686;2022-10-31T06:27:19;10.10;99.90
54684;DHT22;40582;53.100;6.686;2022-10-31T06:29:45;10.00;99.90
54684;DHT22;40582;53.100;6.686;2022-10-31T06:32:12;9.90;99.90
54684;DHT22;40582;53.100;6.686;2022-10-31T06:34:39;9.90;99.90
54684;DHT22;40582;53.100;6.686;2022-10-31T06:37:09;9.90;99.90
54684;DHT22;40582;53.100;6.686;2022-10-31T06:39:35;10.00;99.90
54684;DHT22;40582;53.100;6.686;2022-10-31T06:42:02;10.00;99.90
54684;DHT22;40582;53.100;6.686;2022-10-31T06:44:27;9.90;99.90
54684;DHT22;40582;53.100;6.686;2022-10-31T06:46:53;10.00;99.90
54684;DHT22;40582;53.100;6.686;2022-10-31T06:49:19;10.10;99.90
54684;DHT22;40582;53.100;6.686;2022-10-31T06:51:48;10.20;99.90
54684;DHT22;40582;53.100;6.686;2022-10-31T06:54:14;10.20;99.90
54684;DHT22;40582;53.100;6.686;2022-10-31T06:56:40;10.30;99.90
54684;DHT22;40582;53.100;6.686;2022-10-31T06:59:05;10.30;99.90
54684;DHT22;40582;53.100;6.686;2022-10-31T07:01:31;10.20;99.90
54684;DHT22;40582;53.100;6.686;2022-10-31T07:03:57;10.10;99.90
54684;DHT22;40582;53.100;6.686;2022-10-31T07:06:22;10.10;99.90
54684;DHT22;40582;53.100;6.686;2022-10-31T07:08:48;10.10;99.90
54684;DHT22;40582;53.100;6.686;2022-10-31T07:11:14;10.10;99.90
54684;DHT22;40582;53.100;6.686;2022-10-31T07:13:39;10.20;99.90
54684;DHT22;40582;53.100;6.686;2022-10-31T07:16:06;10.20;99.90
54684;DHT22;40582;53.100;6.686;2022-10-31T07:18:33;10.20;99.90
54684;DHT22;40582;53.100;6.686;2022-10-31T07:20:58;10.20;99.90
54684;DHT22;40582;53.100;6.686;2022-10-31T07:23:24;10.10;99.90
54684;DHT22;40582;53.100;6.686;2022-10-31T07:25:58;10.00;99.90
54684;DHT22;40582;53.100;6.686;2022-10-31T07:28:25;10.00;99.90
54684;DHT22;40582;53.100;6.686;2022-10-31T07:30:52;10.00;99.90
54684;DHT22;40582;53.100;6.686;2022-10-31T07:33:18;9.90;99.90
54684;DHT22;40582;53.100;6.686;2022-10-31T07:35:43;9.90;99.90
54684;DHT22;40582;53.100;6.686;2022-10-31T07:38:11;10.00;99.90
54684;DHT22;40582;53.100;6.686;2022-10-31T07:40:37;10.10;99.90
54684;DHT22;40582;53.100;6.686;2022-10-31T07:43:03;10.10;99.90
54684;DHT22;40582;53.100;6.686;2022-10-31T07:45:28;10.30;99.90
54684;DHT22;40582;53.100;6.686;2022-10-31T07:47:54;10.40;99.90
54684;DHT22;40582;53.100;6.686;2022-10-31T07:50:26;10.50;99.90
54684;DHT22;40582;53.100;6.686;2022-10-31T07:53:06;10.60;99.90
54684;DHT22;40582;53.100;6.686;2022-10-31T07:55:32;10.60;99.90
54684;DHT22;40582;53.100;6.686;2022-10-31T07:58:06;10.50;99.90
54684;DHT22;40582;53.100;6.686;2022-10-31T08:00:34;10.50;99.90
54684;DHT22;40582;53.100;6.686;2022-10-31T08:03:05;10.60;99.90
54684;DHT22;40582;53.100;6.686;2022-10-31T08:05:31;10.60;99.90
54684;DHT22;40582;53.100;6.686;2022-10-31T08:07:57;10.70;99.90
54684;DHT22;40582;53.100;6.686;2022-10-31T08:10:24;10.80;99.90
54684;DHT22;40582;53.100;6.686;2022-10-31T08:13:08;10.90;99.90
54684;DHT22;40582;53.100;6.686;2022-10-31T08:15:34;11.00;99.90
54684;DHT22;40582;53.100;6.686;2022-10-31T08:18:04;11.00;99.90
54684;DHT22;40582;53.100;6.686;2022-10-31T08:20:29;11.00;99.90
54684;DHT22;40582;53.100;6.686;2022-10-31T08:23:00;11.00;99.90
54684;DHT22;40582;53.100;6.686;2022-10-31T08:25:29;11.00;99.90
54684;DHT22;40582;53.100;6.686;2022-10-31T08:27:55;11.00;99.90
54684;DHT22;40582;53.100;6.686;2022-10-31T08:30:23;11.00;99.90
54684;DHT22;40582;53.100;6.686;2022-10-31T08:33:12;10.90;99.90
54684;DHT22;40582;53.100;6.686;2022-10-31T08:35:38;11.00;99.90
54684;DHT22;40582;53.100;6.686;2022-10-31T08:38:04;11.10;99.90
54684;DHT22;40582;53.100;6.686;2022-10-31T08:40:31;11.10;99.90
54684;DHT22;40582;53.100;6.686;2022-10-31T08:43:06;11.20;99.90
54684;DHT22;40582;53.100;6.686;2022-10-31T08:45:33;11.20;99.90
54684;DHT22;40582;53.100;6.686;2022-10-31T08:48:04;11.30;99.90
54684;DHT22;40582;53.100;6.686;2022-10-31T08:50:32;11.30;99.90
54684;DHT22;40582;53.100;6.686;2022-10-31T08:53:18;11.30;99.90
54684;DHT22;40582;53.100;6.686;2022-10-31T08:55:44;11.40;99.90
54684;DHT22;40582;53.100;6.686;2022-10-31T08:58:12;11.40;99.90
54684;DHT22;40582;53.100;6.686;2022-10-31T09:00:39;11.40;99.90
54684;DHT22;40582;53.100;6.686;2022-10-31T09:03:06;11.50;99.90
54684;DHT22;40582;53.100;6.686;2022-10-31T09:05:34;11.50;99.90
54684;DHT22;40582;53.100;6.686;2022-10-31T09:08:01;11.60;99.90
54684;DHT22;40582;53.100;6.686;2022-10-31T09:10:28;11.60;99.90
54684;DHT22;40582;53.100;6.686;2022-10-31T09:13:10;11.60;99.90
54684;DHT22;40582;53.100;6.686;2022-10-31T09:15:38;11.60;99.90
54684;DHT22;40582;53.100;6.686;2022-10-31T09:18:05;11.70;99.90
54684;DHT22;40582;53.100;6.686;2022-10-31T09:20:32;11.60;99.90
54684;DHT22;40582;53.100;6.686;2022-10-31T09:23:12;11.70;99.90
54684;DHT22;40582;53.100;6.686;2022-10-31T09:25:38;11.70;99.90
54684;DHT22;40582;53.100;6.686;2022-10-31T09:28:05;11.80;99.90
54684;DHT22;40582;53.100;6.686;2022-10-31T09:30:32;11.80;99.90
54684;DHT22;40582;53.100;6.686;2022-10-31T09:33:00;11.80;99.90
54684;DHT22;40582;53.100;6.686;2022-10-31T09:35:26;11.90;99.90
54684;DHT22;40582;53.100;6.686;2022-10-31T09:38:00;11.90;99.90
54684;DHT22;40582;53.100;6.686;2022-10-31T09:40:34;12.00;99.90
54684;DHT22;40582;53.100;6.686;2022-10-31T09:43:07;12.10;99.90
54684;DHT22;40582;53.100;6.686;2022-10-31T09:51:23;12.10;99.90
54684;DHT22;40582;53.100;6.686;2022-10-31T09:54:04;12.20;99.90
54684;DHT22;40582;53.100;6.686;2022-10-31T09:56:32;12.20;99.90
54684;DHT22;40582;53.100;6.686;2022-10-31T09:59:02;12.20;99.90
54684;DHT22;40582;53.100;6.686;2022-10-31T10:01:55;12.30;99.90
54684;DHT22;40582;53.100;6.686;2022-10-31T10:04:39;12.30;99.90
54684;DHT22;40582;53.100;6.686;2022-10-31T10:07:16;12.40;99.90
54684;DHT22;40582;53.100;6.686;2022-10-31T10:09:45;12.50;99.90
54684;DHT22;40582;53.100;6.686;2022-10-31T10:13:01;12.60;99.90
54684;DHT22;40582;53.100;6.686;2022-10-31T10:15:40;12.70;99.90
54684;DHT22;40582;53.100;6.686;2022-10-31T10:21:48;13.00;99.90
54684;DHT22;40582;53.100;6.686;2022-10-31T10:27:23;13.40;99.90
54684;DHT22;40582;53.100;6.686;2022-10-31T10:30:13;13.40;99.90
54684;DHT22;40582;53.100;6.686;2022-10-31T10:32:50;13.40;99.90
54684;DHT22;40582;53.100;6.686;2022-10-31T10:35:49;13.40;99.90
54684;DHT22;40582;53.100;6.686;2022-10-31T10:41:01;13.50;99.90
54684;DHT22;40582;53.100;6.686;2022-10-31T10:43:34;13.60;99.90
54684;DHT22;40582;53.100;6.686;2022-10-31T10:49:16;13.60;99.90
54684;DHT22;40582;53.100;6.686;2022-10-31T10:52:10;13.60;99.90
54684;DHT22;40582;53.100;6.686;2022-10-31T10:54:45;13.70;99.90
54684;DHT22;40582;53.100;6.686;2022-10-31T11:00:36;14.10;99.90
54684;DHT22;40582;53.100;6.686;2022-10-31T11:03:03;14.30;99.90
54684;DHT22;40582;53.100;6.686;2022-10-31T11:05:40;14.50;99.90
54684;DHT22;40582;53.100;6.686;2022-10-31T11:08:07;14.60;99.90
54684;DHT22;40582;53.100;6.686;2022-10-31T11:10:34;14.70;99.90
54684;DHT22;40582;53.100;6.686;2022-10-31T11:13:23;14.70;99.90
54684;DHT22;40582;53.100;6.686;2022-10-31T11:15:56;14.60;99.90
54684;DHT22;40582;53.100;6.686;2022-10-31T11:18:25;14.50;99.90
54684;DHT22;40582;53.100;6.686;2022-10-31T11:20:55;14.50;99.90
54684;DHT22;40582;53.100;6.686;2022-10-31T11:23:23;14.50;99.90
54684;DHT22;40582;53.100;6.686;2022-10-31T11:28:22;14.40;99.90
54684;DHT22;40582;53.100;6.686;2022-10-31T11:30:54;14.40;99.90
54684;DHT22;40582;53.100;6.686;2022-10-31T11:35:53;14.50;99.90
54684;DHT22;40582;53.100;6.686;2022-10-31T11:38:22;14.50;99.90
54684;DHT22;40582;53.100;6.686;2022-10-31T11:41:43;14.60;99.90
54684;DHT22;40582;53.100;6.686;2022-10-31T11:43:53;14.60;99.90
54684;DHT22;40582;53.100;6.686;2022-10-31T11:46:24;14.70;99.90
54684;DHT22;40582;53.100;6.686;2022-10-31T11:48:53;14.90;99.90
54684;DHT22;40582;53.100;6.686;2022-10-31T11:51:26;15.10;99.90
54684;DHT22;40582;53.100;6.686;2022-10-31T11:53:55;15.20;99.90
54684;DHT22;40582;53.100;6.686;2022-10-31T11:56:22;15.30;99.90
54684;DHT22;40582;53.100;6.686;2022-10-31T11:58:59;15.40;99.90
54684;DHT22;40582;53.100;6.686;2022-10-31T12:01:29;15.50;99.90
54684;DHT22;40582;53.100;6.686;2022-10-31T12:04:06;15.50;99.90
54684;DHT22;40582;53.100;6.686;2022-10-31T12:06:37;15.60;99.90
54684;DHT22;40582;53.100;6.686;2022-10-31T12:12:05;15.60;99.90
54684;DHT22;40582;53.100;6.686;2022-10-31T12:17:15;15.60;99.90
54684;DHT22;40582;53.100;6.686;2022-10-31T12:28:19;15.60;99.90
54684;DHT22;40582;53.100;6.686;2022-10-31T12:30:54;15.50;99.90
54684;DHT22;40582;53.100;6.686;2022-10-31T12:33:43;15.50;99.90
54684;DHT22;40582;53.100;6.686;2022-10-31T12:44:49;15.30;99.90
54684;DHT22;40582;53.100;6.686;2022-10-31T12:51:19;15.30;99.90
54684;DHT22;40582;53.100;6.686;2022-10-31T13:02:09;15.30;99.90
54684;DHT22;40582;53.100;6.686;2022-10-31T13:04:48;15.30;99.90
54684;DHT22;40582;53.100;6.686;2022-10-31T13:07:21;15.40;99.90
54684;DHT22;40582;53.100;6.686;2022-10-31T13:10:05;15.40;99.90
54684;DHT22;40582;53.100;6.686;2022-10-31T13:12:35;15.40;99.90
54684;DHT22;40582;53.100;6.686;2022-10-31T13:15:18;15.30;99.90
54684;DHT22;40582;53.100;6.686;2022-10-31T13:17:50;15.30;99.90
54684;DHT22;40582;53.100;6.686;2022-10-31T13:22:53;15.30;99.90
54684;DHT22;40582;53.100;6.686;2022-10-31T13:25:28;15.20;99.90
54684;DHT22;40582;53.100;6.686;2022-10-31T13:27:58;15.30;99.90
54684;DHT22;40582;53.100;6.686;2022-10-31T13:30:28;15.30;99.90
54684;DHT22;40582;53.100;6.686;2022-10-31T13:44:00;15.50;99.90
54684;DHT22;40582;53.100;6.686;2022-10-31T13:48:58;15.60;99.90
54684;DHT22;40582;53.100;6.686;2022-10-31T13:51:32;15.60;99.90
54684;DHT22;40582;53.100;6.686;2022-10-31T13:54:23;15.50;99.90
54684;DHT22;40582;53.100;6.686;2022-10-31T13:56:51;15.40;99.90
54684;DHT22;40582;53.100;6.686;2022-10-31T13:59:19;15.40;99.90
54684;DHT22;40582;53.100;6.686;2022-10-31T14:02:00;15.30;99.90
54684;DHT22;40582;53.100;6.686;2022-10-31T14:04:38;15.20;99.90
54684;DHT22;40582;53.100;6.686;2022-10-31T14:07:18;15.20;99.90
54684;DHT22;40582;53.100;6.686;2022-10-31T14:10:22;15.10;99.90
54684;DHT22;40582;53.100;6.686;2022-10-31T14:12:50;15.10;99.90
54684;DHT22;40582;53.100;6.686;2022-10-31T14:15:24;15.00;99.90
54684;DHT22;40582;53.100;6.686;2022-10-31T14:18:00;15.00;99.90
54684;DHT22;40582;53.100;6.686;2022-10-31T14:20:43;15.00;99.90
54684;DHT22;40582;53.100;6.686;2022-10-31T14:32:04;14.80;99.90
54684;DHT22;40582;53.100;6.686;2022-10-31T14:40:17;14.80;99.90
54684;DHT22;40582;53.100;6.686;2022-10-31T14:43:14;14.80;99.90
54684;DHT22;40582;53.100;6.686;2022-10-31T14:48:28;14.80;99.90
54684;DHT22;40582;53.100;6.686;2022-10-31T14:50:57;14.80;99.90
54684;DHT22;40582;53.100;6.686;2022-10-31T14:53:27;14.80;99.90
54684;DHT22;40582;53.100;6.686;2022-10-31T14:55:56;14.80;99.90
54684;DHT22;40582;53.100;6.686;2022-10-31T14:58:41;14.80;99.90
54684;DHT22;40582;53.100;6.686;2022-10-31T15:01:22;14.80;99.90
54684;DHT22;40582;53.100;6.686;2022-10-31T15:03:48;14.70;99.90
54684;DHT22;40582;53.100;6.686;2022-10-31T15:06:17;14.70;99.90
54684;DHT22;40582;53.100;6.686;2022-10-31T15:08:44;14.60;99.90
54684;DHT22;40582;53.100;6.686;2022-10-31T15:11:24;14.60;99.90
54684;DHT22;40582;53.100;6.686;2022-10-31T15:13:58;14.50;99.90
54684;DHT22;40582;53.100;6.686;2022-10-31T15:16:35;14.50;99.90
54684;DHT22;40582;53.100;6.686;2022-10-31T15:19:06;14.40;99.90
54684;DHT22;40582;53.100;6.686;2022-10-31T15:21:41;14.40;99.90
54684;DHT22;40582;53.100;6.686;2022-10-31T15:24:12;14.40;99.90
54684;DHT22;40582;53.100;6.686;2022-10-31T15:26:45;14.30;99.90
54684;DHT22;40582;53.100;6.686;2022-10-31T15:29:17;14.30;99.90
54684;DHT22;40582;53.100;6.686;2022-10-31T15:31:50;14.30;99.90
54684;DHT22;40582;53.100;6.686;2022-10-31T15:34:22;14.20;99.90
54684;DHT22;40582;53.100;6.686;2022-10-31T15:36:49;14.20;99.90
54684;DHT22;40582;53.100;6.686;2022-10-31T15:39:18;14.20;99.90
54684;DHT22;40582;53.100;6.686;2022-10-31T15:46:53;14.00;99.90
54684;DHT22;40582;53.100;6.686;2022-10-31T15:52:51;14.00;99.90
54684;DHT22;40582;53.100;6.686;2022-10-31T15:54:54;13.90;99.90
54684;DHT22;40582;53.100;6.686;2022-10-31T15:57:23;13.90;99.90
54684;DHT22;40582;53.100;6.686;2022-10-31T15:59:49;13.90;99.90
54684;DHT22;40582;53.100;6.686;2022-10-31T16:02:22;13.80;99.90
54684;DHT22;40582;53.100;6.686;2022-10-31T16:04:52;13.70;99.90
54684;DHT22;40582;53.100;6.686;2022-10-31T16:07:19;13.70;99.90
54684;DHT22;40582;53.100;6.686;2022-10-31T16:09:57;13.60;99.90
54684;DHT22;40582;53.100;6.686;2022-10-31T16:12:25;13.60;99.90
54684;DHT22;40582;53.100;6.686;2022-10-31T16:14:53;13.50;99.90
54684;DHT22;40582;53.100;6.686;2022-10-31T16:17:22;13.40;99.90
54684;DHT22;40582;53.100;6.686;2022-10-31T16:19:58;13.40;99.90
54684;DHT22;40582;53.100;6.686;2022-10-31T16:22:30;13.30;99.90
54684;DHT22;40582;53.100;6.686;2022-10-31T16:27:31;13.20;99.90
54684;DHT22;40582;53.100;6.686;2022-10-31T16:29:58;13.20;99.90
54684;DHT22;40582;53.100;6.686;2022-10-31T16:35:33;13.10;99.90
54684;DHT22;40582;53.100;6.686;2022-10-31T16:37:58;13.10;99.90
54684;DHT22;40582;53.100;6.686;2022-10-31T16:40:24;13.10;99.90
54684;DHT22;40582;53.100;6.686;2022-10-31T16:42:50;13.10;99.90
54684;DHT22;40582;53.100;6.686;2022-10-31T16:45:22;13.10;99.90
54684;DHT22;40582;53.100;6.686;2022-10-31T16:47:48;13.00;99.90
54684;DHT22;40582;53.100;6.686;2022-10-31T16:50:19;13.00;99.90
54684;DHT22;40582;53.100;6.686;2022-10-31T16:52:45;13.00;99.90
54684;DHT22;40582;53.100;6.686;2022-10-31T16:55:14;13.00;99.90
54684;DHT22;40582;53.100;6.686;2022-10-31T16:57:42;12.90;99.90
54684;DHT22;40582;53.100;6.686;2022-10-31T17:00:17;13.00;99.90
54684;DHT22;40582;53.100;6.686;2022-10-31T17:02:44;13.00;99.90
54684;DHT22;40582;53.100;6.686;2022-10-31T17:05:12;13.00;99.90
54684;DHT22;40582;53.100;6.686;2022-10-31T17:07:39;13.00;99.90
54684;DHT22;40582;53.100;6.686;2022-10-31T17:10:05;13.00;99.90
54684;DHT22;40582;53.100;6.686;2022-10-31T17:12:31;13.00;99.90
54684;DHT22;40582;53.100;6.686;2022-10-31T17:14:57;13.00;99.90
54684;DHT22;40582;53.100;6.686;2022-10-31T17:17:23;13.00;99.90
54684;DHT22;40582;53.100;6.686;2022-10-31T17:19:49;13.00;99.90
54684;DHT22;40582;53.100;6.686;2022-10-31T17:22:15;13.00;99.90
54684;DHT22;40582;53.100;6.686;2022-10-31T17:24:41;13.00;99.90
54684;DHT22;40582;53.100;6.686;2022-10-31T17:27:07;13.00;99.90
54684;DHT22;40582;53.100;6.686;2022-10-31T17:29:32;12.90;99.90
54684;DHT22;40582;53.100;6.686;2022-10-31T17:31:59;13.00;99.90
54684;DHT22;40582;53.100;6.686;2022-10-31T17:34:26;13.00;99.90
54684;DHT22;40582;53.100;6.686;2022-10-31T17:36:52;13.00;99.90
54684;DHT22;40582;53.100;6.686;2022-10-31T17:39:18;13.00;99.90
54684;DHT22;40582;53.100;6.686;2022-10-31T17:41:45;12.90;99.90
54684;DHT22;40582;53.100;6.686;2022-10-31T17:44:11;12.90;99.90
54684;DHT22;40582;53.100;6.686;2022-10-31T17:46:37;13.00;99.90
54684;DHT22;40582;53.100;6.686;2022-10-31T17:49:03;13.00;99.90
54684;DHT22;40582;53.100;6.686;2022-10-31T17:51:31;13.00;99.90
54684;DHT22;40582;53.100;6.686;2022-10-31T17:53:57;13.00;99.90
54684;DHT22;40582;53.100;6.686;2022-10-31T17:56:23;13.10;99.90
54684;DHT22;40582;53.100;6.686;2022-10-31T17:58:49;13.10;99.90
54684;DHT22;40582;53.100;6.686;2022-10-31T18:01:16;13.10;99.90
54684;DHT22;40582;53.100;6.686;2022-10-31T18:03:42;13.20;99.90